Time;durP1;ratioP1;P1;durP2;ratioP2;P2;SDS_P1;SDS_P2;PMS_P1;PMS_P2;Temp;Humidity;BMP_temperature;BMP_pressure;BME280_temperature;BME280_humidity;BME280_pressure;Samples;Min_cycle;Max_cycle;Signal;HPM_P1;HPM_P2
2022/12/04 00:02:09;;;;;;;32.83;14.13;;;;;;;-0.03;100.00;96955.50;5028501;28;20505;-55
2022/12/04 00:04:35;;;;;;;31.08;13.70;;;;;;;-0.19;100.00;96953.97;5028716;28;20103;-57
2022/12/04 00:07:02;;;;;;;31.52;13.32;;;;;;;-0.18;100.00;96952.94;5028334;28;20525;-56
2022/12/04 00:09:29;;;;;;;34.88;15.15;;;;;;;-0.17;100.00;96962.59;5028514;28;20107;-57
2022/12/04 00:11:55;;;;;;;31.23;13.57;;;;;;;-0.10;100.00;96967.13;5027919;28;20115;-57
2022/12/04 00:14:22;;;;;;;32.28;14.18;;;;;;;-0.10;100.00;96964.47;5028917;28;20361;-57
2022/12/04 00:16:49;;;;;;;32.72;14.15;;;;;;;-0.20;100.00;96959.47;5028480;28;20038;-55
2022/12/04 00:19:16;;;;;;;35.47;14.20;;;;;;;-0.28;100.00;96955.13;5029329;28;20050;-56
2022/12/04 00:21:44;;;;;;;29.38;13.77;;;;;;;-0.22;100.00;96951.69;5027273;28;20115;-57
2022/12/04 00:24:11;;;;;;;29.35;13.20;;;;;;;-0.07;100.00;96945.44;5028293;28;20037;-57
2022/12/04 00:26:37;;;;;;;21.95;11.70;;;;;;;0.00;100.00;96956.97;5028744;28;20100;-59
2022/12/04 00:29:04;;;;;;;26.92;12.50;;;;;;;-0.06;100.00;96953.25;5027907;28;20544;-57
2022/12/04 00:31:30;;;;;;;28.77;12.85;;;;;;;-0.17;100.00;96962.59;5028293;28;20045;-55
2022/12/04 00:33:58;;;;;;;27.90;12.73;;;;;;;-0.13;100.00;96955.03;5028555;28;20412;-58
2022/12/04 00:36:27;;;;;;;31.05;13.93;;;;;;;-0.19;100.00;96937.19;5028164;28;20590;-56
2022/12/04 00:38:54;;;;;;;26.63;12.93;;;;;;;-0.15;100.00;96941.91;5028779;28;20046;-56
2022/12/04 00:41:23;;;;;;;26.05;12.32;;;;;;;-0.20;100.00;96938.19;5028055;28;20657;-54
2022/12/04 00:43:50;;;;;;;30.75;13.05;;;;;;;-0.17;100.00;96941.31;5028213;28;20045;-57
2022/12/04 00:46:17;;;;;;;29.38;14.48;;;;;;;-0.22;100.00;96935.72;5027955;28;20116;-57
2022/12/04 00:48:45;;;;;;;26.27;12.00;;;;;;;-0.21;100.00;96950.69;5012516;28;20465;-53
2022/12/04 00:51:14;;;;;;;28.55;14.40;;;;;;;-0.19;100.00;96955.81;5025406;28;20043;-56
2022/12/04 00:53:41;;;;;;;26.08;13.00;;;;;;;-0.23;100.00;96952.69;5027786;28;20064;-54
2022/12/04 00:56:14;;;;;;;25.48;12.68;;;;;;;-0.18;100.00;96929.00;5028455;28;20096;-56
2022/12/04 00:58:42;;;;;;;26.38;12.15;;;;;;;-0.24;100.00;96942.25;5027764;28;20425;-55
2022/12/04 01:01:19;;;;;;;25.15;11.48;;;;;;;-0.22;100.00;96957.00;5027488;28;20041;-56
2022/12/04 01:03:47;;;;;;;22.42;10.48;;;;;;;-0.19;100.00;96948.63;5028326;28;20038;-57
2022/12/04 01:06:23;;;;;;;26.63;11.48;;;;;;;-0.20;100.00;96943.50;5027186;28;20125;-56
2022/12/04 01:08:51;;;;;;;24.33;12.20;;;;;;;-0.21;100.00;96952.50;5027740;28;20460;-55
2022/12/04 01:11:20;;;;;;;25.83;12.20;;;;;;;-0.19;100.00;96942.50;5026653;28;20540;-56
2022/12/04 01:13:46;;;;;;;27.48;11.77;;;;;;;-0.19;100.00;96935.34;5026752;28;20124;-57
2022/12/04 01:16:19;;;;;;;28.55;11.38;;;;;;;-0.22;100.00;96938.38;5027421;28;20468;-56
2022/12/04 01:18:46;;;;;;;25.83;11.93;;;;;;;-0.12;100.00;96951.34;5026999;28;20048;-57
2022/12/04 01:21:13;;;;;;;25.98;11.90;;;;;;;-0.16;100.00;96934.13;5019675;28;20132;-53
2022/12/04 01:23:39;;;;;;;25.73;12.52;;;;;;;-0.24;100.00;96935.09;5007338;28;20084;-58
2022/12/04 01:26:06;;;;;;;26.38;11.80;;;;;;;-0.07;100.00;96930.28;5007352;28;20077;-55
2022/12/04 01:28:33;;;;;;;21.73;10.35;;;;;;;-0.02;100.00;96933.22;5006886;28;20068;-55
2022/12/04 01:31:02;;;;;;;23.23;10.57;;;;;;;-0.01;100.00;96931.34;5007102;28;20209;-58
2022/12/04 01:33:30;;;;;;;25.20;12.27;;;;;;;-0.06;100.00;96939.09;5007120;28;20506;-58
2022/12/04 01:35:58;;;;;;;22.10;10.48;;;;;;;-0.04;100.00;96942.41;5006907;28;20099;-56
2022/12/04 01:38:26;;;;;;;27.45;12.38;;;;;;;-0.03;100.00;96942.19;5007235;28;20099;-58
2022/12/04 01:40:53;;;;;;;26.33;12.07;;;;;;;0.03;100.00;96945.13;5006221;28;20124;-55
2022/12/04 01:43:20;;;;;;;23.10;10.98;;;;;;;-0.06;100.00;96931.94;5006900;28;20041;-58
2022/12/04 01:45:49;;;;;;;27.45;11.65;;;;;;;-0.04;100.00;96937.09;5006953;28;20119;-58
2022/12/04 01:48:22;;;;;;;27.35;12.40;;;;;;;-0.03;100.00;96938.72;5013653;28;20493;-56
2022/12/04 01:50:52;;;;;;;23.83;11.45;;;;;;;0.05;100.00;96946.56;5026105;28;20068;-57
2022/12/04 01:53:19;;;;;;;24.02;11.13;;;;;;;0.06;100.00;96937.56;5026158;28;20040;-57
2022/12/04 01:55:47;;;;;;;29.48;12.13;;;;;;;0.04;100.00;96934.25;5026819;28;20045;-54
2022/12/04 01:58:14;;;;;;;24.17;12.23;;;;;;;0.04;100.00;96936.09;5026607;28;20121;-56
2022/12/04 02:00:41;;;;;;;26.33;12.15;;;;;;;-0.01;100.00;96932.19;5026608;28;20556;-54
2022/12/04 02:03:08;;;;;;;26.90;12.65;;;;;;;-0.03;100.00;96928.06;5026633;28;20053;-55
2022/12/04 02:05:35;;;;;;;22.92;11.75;;;;;;;-0.04;100.00;96929.91;5026134;28;20132;-56
2022/12/04 02:08:04;;;;;;;25.40;11.98;;;;;;;-0.08;100.00;96935.81;5027159;28;20042;-56
2022/12/04 02:10:59;;;;;;;27.50;12.50;;;;;;;-0.13;100.00;96947.03;5025903;28;20037;-57
2022/12/04 02:13:45;;;;;;;23.63;11.55;;;;;;;-0.16;100.00;96942.94;5026073;28;20132;-57
2022/12/04 02:16:50;;;;;;;30.95;12.55;;;;;;;-0.03;100.00;96944.84;5026270;28;20037;-56
2022/12/04 02:19:50;;;;;;;26.17;11.30;;;;;;;-0.11;100.00;96938.88;5018887;28;20341;-55
2022/12/04 02:22:31;;;;;;;28.85;12.25;;;;;;;-0.07;100.00;96943.59;5021278;28;20053;-58
2022/12/04 02:25:11;;;;;;;28.27;12.77;;;;;;;-0.09;100.00;96935.00;5018322;28;20046;-55
2022/12/04 02:27:38;;;;;;;30.67;12.75;;;;;;;-0.06;100.00;96933.78;5014210;28;20052;-56
2022/12/04 02:30:08;;;;;;;28.10;12.20;;;;;;;0.01;100.00;96931.16;5006279;28;20536;-57
2022/12/04 02:32:40;;;;;;;33.67;14.73;;;;;;;-0.03;100.00;96925.41;5006323;28;20053;-56
2022/12/04 02:35:15;;;;;;;31.70;13.07;;;;;;;-0.05;100.00;96922.94;5005938;28;20078;-54
2022/12/04 02:37:51;;;;;;;24.95;12.55;;;;;;;0.01;100.00;96920.50;5013132;28;20037;-56
2022/12/04 02:40:28;;;;;;;27.20;11.75;;;;;;;0.08;100.00;96905.41;5025790;28;20158;-56
2022/12/04 02:43:01;;;;;;;29.45;11.98;;;;;;;-0.08;100.00;96911.88;5025979;28;20045;-55
2022/12/04 02:45:38;;;;;;;25.23;10.30;;;;;;;-0.09;100.00;96911.03;5025440;28;20452;-58
2022/12/04 02:48:07;;;;;;;29.90;13.27;;;;;;;-0.04;100.00;96913.13;5025895;28;20810;-56
2022/12/04 02:50:39;;;;;;;25.90;11.38;;;;;;;-0.04;100.00;96910.47;5009230;28;20046;-57
2022/12/04 02:53:13;;;;;;;28.30;12.45;;;;;;;-0.06;100.00;96912.50;5026179;28;20041;-54
2022/12/04 02:55:48;;;;;;;24.98;11.07;;;;;;;0.01;100.00;96905.38;5025932;28;20053;-56
2022/12/04 02:58:24;;;;;;;28.48;13.70;;;;;;;-0.01;100.00;96910.06;5025590;28;20049;-56
2022/12/04 03:00:55;;;;;;;23.27;11.00;;;;;;;-0.02;100.00;96911.09;5025523;28;20045;-58
2022/12/04 03:03:28;;;;;;;26.48;11.93;;;;;;;-0.03;100.00;96909.44;5025688;28;20046;-55
2022/12/04 03:06:04;;;;;;;26.95;12.52;;;;;;;-0.07;100.00;96916.19;5025528;28;20508;-58
2022/12/04 03:08:40;;;;;;;31.83;13.00;;;;;;;-0.04;100.00;96913.94;5025541;28;20419;-55
2022/12/04 03:11:07;;;;;;;27.40;12.55;;;;;;;0.03;100.00;96910.50;5025531;28;20072;-53
2022/12/04 03:13:52;;;;;;;29.75;14.27;;;;;;;0.04;100.00;96904.97;5026232;28;20084;-57
2022/12/04 03:16:28;;;;;;;27.75;12.57;;;;;;;0.09;100.00;96915.03;5028457;28;20103;-57
2022/12/04 03:19:00;;;;;;;26.85;12.95;;;;;;;0.08;100.00;96906.22;5025946;28;20586;-54
2022/12/04 03:21:32;;;;;;;;;;;;;;;0.06;100.00;96896.78;5017428;28;20042;-53
2022/12/04 03:24:22;;;;;;;24.80;11.27;;;;;;;0.09;100.00;96888.41;5028044;28;19925;-55
2022/12/04 03:26:57;;;;;;;30.70;12.77;;;;;;;0.07;100.00;96888.59;5028827;28;20315;-58
2022/12/04 03:29:34;;;;;;;29.65;11.60;;;;;;;0.13;100.00;96887.00;5029610;28;20087;-54
2022/12/04 03:32:12;;;;;;;26.13;12.60;;;;;;;0.09;100.00;96883.09;5028401;28;20095;-57
2022/12/04 03:34:43;;;;;;;27.52;11.98;;;;;;;0.01;100.00;96885.91;5029436;28;20069;-54
2022/12/04 03:37:16;;;;;;;29.90;13.15;;;;;;;0.04;100.00;96885.53;5029312;28;20041;-56
2022/12/04 03:40:01;;;;;;;27.50;12.85;;;;;;;0.01;100.00;96885.91;5029507;28;20037;-55
2022/12/04 03:42:38;;;;;;;25.50;11.93;;;;;;;0.06;100.00;96884.31;5028458;28;20609;-57
2022/12/04 03:45:27;;;;;;;26.30;12.90;;;;;;;-0.04;100.00;96876.66;5028969;28;20569;-53
2022/12/04 03:48:15;;;;;;;25.23;11.73;;;;;;;-0.01;100.00;96878.13;5026742;28;20041;-55
2022/12/04 03:51:25;;;;;;;23.50;10.75;;;;;;;0.10;100.00;96880.22;5028065;28;20046;-55
2022/12/04 03:54:01;;;;;;;28.45;12.65;;;;;;;0.10;100.00;96874.91;5017440;28;20524;-54
2022/12/04 03:56:33;;;;;;;25.00;11.88;;;;;;;0.04;100.00;96869.56;5028607;28;20124;-54
2022/12/04 03:59:08;;;;;;;29.42;14.75;;;;;;;-0.01;100.00;96870.13;5028718;28;20501;-56
2022/12/04 04:01:41;;;;;;;29.38;12.15;;;;;;;-0.04;100.00;96874.00;5028431;28;20076;-56
2022/12/04 04:04:14;;;;;;;34.17;12.95;;;;;;;-0.08;100.00;96886.06;5029069;28;20114;-57
2022/12/04 04:06:55;;;;;;;28.23;13.82;;;;;;;0.00;100.00;96890.44;5028986;28;20541;-57
2022/12/04 04:09:25;;;;;;;27.17;13.05;;;;;;;0.05;100.00;96889.81;5028776;28;20038;-58
2022/12/04 04:12:02;;;;;;;32.05;11.88;;;;;;;0.06;100.00;96886.13;5028427;28;20050;-58
2022/12/04 04:26:01;;;;;;;28.75;12.98;;;;;;;0.01;100.00;96899.22;5007529;28;20049;-57
2022/12/04 04:28:40;;;;;;;;;;;;;;;-0.03;100.00;96904.13;5009008;28;20065;-58
2022/12/04 04:31:16;;;;;;;24.50;11.57;;;;;;;-0.01;100.00;96910.88;5007990;28;19956;-58
2022/12/04 04:34:16;;;;;;;26.95;11.38;;;;;;;0.05;100.00;96914.63;5008453;28;20069;-58
2022/12/04 04:36:53;;;;;;;32.28;12.60;;;;;;;0.07;100.00;96915.22;5007362;28;20058;-55
2022/12/04 04:39:47;;;;;;;29.17;13.30;;;;;;;0.15;100.00;96914.25;5008652;28;20537;-58
2022/12/04 04:42:25;;;;;;;29.33;14.57;;;;;;;0.09;100.00;96915.88;5007511;28;20077;-58
2022/12/04 04:45:20;;;;;;;27.20;13.23;;;;;;;0.12;100.00;96912.78;5016902;28;20065;-57
2022/12/04 04:47:46;;;;;;;28.92;13.80;;;;;;;0.13;100.00;96913.63;5027475;28;20045;-57
2022/12/04 04:50:14;;;;;;;30.70;14.05;;;;;;;0.12;100.00;96907.47;5013404;28;20320;-58
2022/12/04 04:52:45;;;;;;;30.50;15.05;;;;;;;0.02;100.00;96901.69;5026895;28;20053;-58
2022/12/04 04:55:15;;;;;;;28.00;14.23;;;;;;;-0.02;100.00;96893.28;5027941;28;20477;-58
2022/12/04 04:57:41;;;;;;;30.27;15.23;;;;;;;-0.01;100.00;96899.41;5027771;28;20129;-58
2022/12/04 05:00:13;;;;;;;31.60;15.52;;;;;;;-0.01;100.00;96894.09;5027371;28;20045;-58
2022/12/04 05:02:40;;;;;;;26.60;13.32;;;;;;;-0.05;100.00;96899.00;5027650;28;20413;-57
2022/12/04 05:05:08;;;;;;;29.40;13.30;;;;;;;-0.04;100.00;96899.81;5027495;28;20076;-55
2022/12/04 05:07:34;;;;;;;31.42;14.23;;;;;;;0.02;100.00;96896.38;5027455;28;20049;-57
2022/12/04 05:10:01;;;;;;;30.20;14.95;;;;;;;0.07;100.00;96899.25;5027740;28;20051;-55
2022/12/04 05:12:27;;;;;;;30.52;13.98;;;;;;;0.11;100.00;96899.69;5026968;28;20042;-55
2022/12/04 05:14:54;;;;;;;31.45;13.80;;;;;;;0.18;100.00;96911.19;5027475;28;20049;-58
2022/12/04 05:17:21;;;;;;;28.45;14.35;;;;;;;0.11;100.00;96910.34;5027363;28;20041;-56
2022/12/04 05:19:53;;;;;;;28.95;12.73;;;;;;;0.15;100.00;96911.59;5028260;28;20103;-57
2022/12/04 05:22:30;;;;;;;28.67;13.13;;;;;;;0.20;100.00;96908.34;5027232;28;20045;-55
2022/12/04 05:24:58;;;;;;;27.40;14.63;;;;;;;0.22;100.00;96908.97;5027441;28;20056;-59
2022/12/04 05:27:26;;;;;;;27.88;12.93;;;;;;;0.35;100.00;96913.53;5026898;28;20049;-58
2022/12/04 05:29:54;;;;;;;27.42;13.30;;;;;;;0.32;100.00;96897.94;5027065;28;20390;-57
2022/12/04 05:32:23;;;;;;;34.22;15.65;;;;;;;0.20;100.00;96900.34;5027041;28;20037;-57
2022/12/04 05:34:52;;;;;;;31.88;14.98;;;;;;;0.25;100.00;96900.56;5026788;28;20493;-58
2022/12/04 05:37:19;;;;;;;27.08;14.35;;;;;;;0.25;100.00;96897.91;5026681;28;20633;-58
2022/12/04 05:39:46;;;;;;;28.17;13.70;;;;;;;0.22;100.00;96896.47;5026606;28;20045;-58
2022/12/04 05:42:13;;;;;;;29.30;13.63;;;;;;;0.20;100.00;96900.34;5022811;28;20088;-57
2022/12/04 05:44:39;;;;;;;30.10;14.57;;;;;;;0.24;100.00;96894.44;5006917;28;20049;-55
2022/12/04 05:47:06;;;;;;;25.60;13.13;;;;;;;0.27;100.00;96893.22;5010592;28;20042;-56
2022/12/04 05:49:34;;;;;;;27.65;13.77;;;;;;;0.42;100.00;96900.25;5018180;28;20041;-58
2022/12/04 05:52:02;;;;;;;31.77;14.75;;;;;;;0.42;100.00;96898.41;5026098;28;20075;-57
2022/12/04 05:54:28;;;;;;;27.98;14.57;;;;;;;0.40;100.00;96899.63;5026735;28;20095;-58
2022/12/04 05:56:55;;;;;;;28.25;12.65;;;;;;;0.34;100.00;96902.03;5026445;28;20099;-56
2022/12/04 05:59:21;;;;;;;29.88;14.15;;;;;;;0.35;100.00;96894.88;5026274;28;20091;-59
2022/12/04 06:01:48;;;;;;;27.73;13.60;;;;;;;0.33;100.00;96902.25;5026403;28;20072;-58
2022/12/04 06:04:15;;;;;;;29.55;13.98;;;;;;;0.38;100.00;96899.81;5025959;28;20052;-58
2022/12/04 06:06:42;;;;;;;29.23;14.63;;;;;;;0.29;100.00;96901.81;5026032;28;20060;-56
2022/12/04 06:09:10;;;;;;;29.48;14.63;;;;;;;0.19;100.00;96893.38;5026643;28;20350;-57
2022/12/04 06:11:38;;;;;;;27.35;14.90;;;;;;;0.20;100.00;96895.84;5025761;28;20045;-58
2022/12/04 06:14:09;;;;;;;29.17;14.95;;;;;;;0.20;100.00;96895.03;5025896;28;20117;-56
2022/12/04 06:16:39;;;;;;;32.28;15.50;;;;;;;0.25;100.00;96903.22;5025721;28;20069;-57
2022/12/04 06:19:11;;;;;;;31.70;14.98;;;;;;;0.19;100.00;96912.03;5020519;28;20725;-52
2022/12/04 06:21:39;;;;;;;29.58;15.48;;;;;;;0.17;100.00;96904.22;5015871;28;20045;-55
2022/12/04 06:24:09;;;;;;;32.05;15.45;;;;;;;0.17;100.00;96908.72;5026801;28;20320;-56
2022/12/04 06:26:36;;;;;;;31.20;15.02;;;;;;;0.10;100.00;96906.84;5026130;28;20520;-56
2022/12/04 06:29:23;;;;;;;31.95;15.27;;;;;;;0.11;100.00;96905.81;5026482;28;20041;-57
2022/12/04 06:31:50;;;;;;;28.70;13.88;;;;;;;0.09;100.00;96907.88;5025724;28;20072;-55
2022/12/04 06:34:17;;;;;;;29.38;14.85;;;;;;;0.05;100.00;96908.47;5025586;28;20307;-56
2022/12/04 06:36:44;;;;;;;31.85;15.68;;;;;;;0.13;100.00;96900.31;5026422;28;20044;-59
2022/12/04 06:39:10;;;;;;;27.90;13.95;;;;;;;0.14;100.00;96906.47;5025612;28;20507;-57
2022/12/04 06:41:43;;;;;;;30.08;15.70;;;;;;;0.14;100.00;96901.16;5025622;28;20045;-57
2022/12/04 06:44:10;;;;;;;27.98;15.70;;;;;;;0.12;100.00;96896.81;5025660;28;20077;-58
2022/12/04 06:46:37;;;;;;;28.88;15.48;;;;;;;0.11;100.00;96903.16;5025592;28;20045;-58
2022/12/04 06:49:11;;;;;;;31.65;15.88;;;;;;;0.12;100.00;96902.16;5018638;28;20050;-58
2022/12/04 06:51:39;;;;;;;27.08;14.43;;;;;;;0.14;100.00;96903.81;5015935;28;20041;-58
2022/12/04 06:54:06;;;;;;;29.95;14.63;;;;;;;0.12;100.00;96902.16;5025815;28;20073;-58
2022/12/04 06:56:33;;;;;;;29.73;13.68;;;;;;;0.15;100.00;96905.44;5025457;28;20456;-57
2022/12/04 06:59:02;;;;;;;27.17;13.07;;;;;;;0.18;100.00;96905.88;5025558;28;20045;-58
2022/12/04 07:01:31;;;;;;;30.95;14.52;;;;;;;0.27;100.00;96903.03;5025105;28;20057;-58
2022/12/04 07:04:02;;;;;;;29.33;14.98;;;;;;;0.31;100.00;96905.13;5025890;28;20544;-56
2022/12/04 07:06:33;;;;;;;25.65;14.05;;;;;;;0.22;100.00;96903.66;5026007;28;20087;-58
2022/12/04 07:09:04;;;;;;;;;;;;;;;0.20;100.00;96906.50;5025740;28;20116;-59
2022/12/04 07:11:31;;;;;;;29.70;14.05;;;;;;;0.13;100.00;96913.63;5025574;28;20372;-56
2022/12/04 07:13:57;;;;;;;28.63;13.52;;;;;;;0.11;100.00;96911.16;5025531;28;20045;-55
2022/12/04 07:16:26;;;;;;;29.00;15.00;;;;;;;0.09;100.00;96907.03;5025510;28;20105;-57
2022/12/04 07:18:53;;;;;;;26.45;14.18;;;;;;;0.10;100.00;96909.53;5021428;28;20038;-58
2022/12/04 07:21:22;;;;;;;26.60;13.65;;;;;;;0.10;100.00;96914.84;5013443;28;20080;-58
2022/12/04 07:23:51;;;;;;;28.50;14.07;;;;;;;0.14;100.00;96909.13;5025262;28;20348;-59
2022/12/04 07:26:19;;;;;;;29.25;15.38;;;;;;;0.10;100.00;96906.84;5025231;28;20080;-57
2022/12/04 07:28:46;;;;;;;29.05;14.30;;;;;;;0.15;100.00;96910.78;5025201;28;20041;-55
2022/12/04 07:31:16;;;;;;;30.55;14.57;;;;;;;0.17;100.00;96903.41;5024867;28;20037;-57
2022/12/04 07:33:44;;;;;;;29.92;14.43;;;;;;;0.18;100.00;96907.72;5025785;28;20053;-57
2022/12/04 07:36:13;;;;;;;29.40;14.85;;;;;;;0.17;100.00;96914.88;5025763;28;20133;-58
2022/12/04 07:38:40;;;;;;;32.83;15.02;;;;;;;0.17;100.00;96914.88;5025551;28;20068;-55
2022/12/04 07:41:09;;;;;;;27.85;13.45;;;;;;;0.23;100.00;96918.59;5025264;28;20045;-58
2022/12/04 07:43:36;;;;;;;29.85;14.38;;;;;;;0.23;100.00;96902.63;5023470;28;20091;-57
2022/12/04 07:46:10;;;;;;;29.42;14.15;;;;;;;0.18;100.00;96907.72;5025093;28;20067;-58
2022/12/04 07:48:37;;;;;;;27.02;13.57;;;;;;;0.21;100.00;96905.47;5022819;28;20046;-58
2022/12/04 07:51:06;;;;;;;26.73;13.63;;;;;;;0.25;100.00;96912.06;5011093;28;20053;-57
2022/12/04 07:53:34;;;;;;;25.88;13.20;;;;;;;0.28;100.00;96910.00;5011722;28;20042;-56
2022/12/04 07:56:01;;;;;;;30.13;13.02;;;;;;;0.27;100.00;96909.19;5005702;28;20107;-59
2022/12/04 07:58:28;;;;;;;26.05;12.95;;;;;;;0.32;100.00;96911.25;5023716;28;20042;-58
2022/12/04 08:00:54;;;;;;;29.75;14.45;;;;;;;0.32;100.00;96912.09;5024848;28;20049;-59
2022/12/04 08:03:21;;;;;;;29.08;13.80;;;;;;;0.28;100.00;96916.16;5016550;28;20067;-59
2022/12/04 08:05:48;;;;;;;32.25;15.00;;;;;;;0.33;100.00;96923.56;5024515;28;20046;-58
2022/12/04 08:08:14;;;;;;;27.95;14.00;;;;;;;0.34;100.00;96918.03;5011147;28;20541;-58
2022/12/04 08:10:41;;;;;;;26.30;13.02;;;;;;;0.33;100.00;96911.06;5031709;28;20146;-57
2022/12/04 08:13:07;;;;;;;30.17;14.65;;;;;;;0.29;100.00;96912.47;5022206;28;20104;-60
2022/12/04 08:15:34;;;;;;;30.75;13.85;;;;;;;0.34;100.00;96906.56;5022948;28;20061;-59
2022/12/04 08:18:01;;;;;;;30.25;13.35;;;;;;;0.34;100.00;96909.22;5019616;28;20073;-58
2022/12/04 08:20:27;;;;;;;33.55;14.52;;;;;;;0.23;100.00;96906.09;5023024;28;20049;-58
2022/12/04 08:22:54;;;;;;;29.83;14.88;;;;;;;0.25;100.00;96917.38;5016184;28;20690;-58
2022/12/04 08:25:20;;;;;;;32.47;13.75;;;;;;;0.30;100.00;96918.63;5026372;28;20115;-59
2022/12/04 08:27:47;;;;;;;33.70;14.93;;;;;;;0.32;100.00;96916.56;5026548;28;20107;-60
2022/12/04 08:30:13;;;;;;;33.00;14.90;;;;;;;0.33;100.00;96919.06;5018370;28;20091;-58
2022/12/04 08:32:40;;;;;;;35.88;14.32;;;;;;;0.47;100.00;96921.78;5024833;28;20580;-58
2022/12/04 08:35:07;;;;;;;29.65;14.95;;;;;;;0.55;100.00;96915.47;5026565;28;20076;-58
2022/12/04 08:37:33;;;;;;;32.58;14.90;;;;;;;0.38;100.00;96916.59;5026015;28;20052;-55
2022/12/04 08:40:00;;;;;;;27.50;13.98;;;;;;;0.40;100.00;96911.09;5026112;28;20080;-58
2022/12/04 08:42:26;;;;;;;27.95;14.48;;;;;;;0.37;100.00;96911.50;5025892;28;20077;-57
2022/12/04 08:44:53;;;;;;;28.95;14.60;;;;;;;0.38;100.00;96924.59;5025959;28;20045;-53
2022/12/04 08:47:19;;;;;;;29.52;14.98;;;;;;;0.44;100.00;96933.66;5017531;28;20045;-58
2022/12/04 08:49:46;;;;;;;30.23;14.80;;;;;;;0.48;100.00;96939.41;5023483;28;20116;-58
2022/12/04 08:52:12;;;;;;;29.23;15.05;;;;;;;0.41;100.00;96942.06;5025513;28;20073;-54
2022/12/04 08:54:39;;;;;;;30.05;14.40;;;;;;;0.30;100.00;96943.44;5025525;28;20104;-55
2022/12/04 08:57:05;;;;;;;30.35;14.48;;;;;;;0.29;100.00;96952.41;5026561;28;20073;-58
2022/12/04 08:59:32;;;;;;;27.70;13.98;;;;;;;0.27;100.00;96949.16;5025306;28;20053;-56
2022/12/04 09:01:58;;;;;;;30.70;14.48;;;;;;;0.30;100.00;96938.09;5025524;28;20504;-57
2022/12/04 09:04:25;;;;;;;31.80;15.55;;;;;;;0.30;100.00;96948.75;5022895;28;20105;-54
2022/12/04 09:06:51;;;;;;;32.20;14.40;;;;;;;0.32;100.00;96948.53;5025216;28;20073;-53
2022/12/04 09:09:18;;;;;;;33.78;14.90;;;;;;;0.44;100.00;96951.50;5025686;28;20037;-55
2022/12/04 09:11:45;;;;;;;27.63;14.35;;;;;;;0.48;100.00;96952.75;5024366;28;20080;-56
2022/12/04 09:14:12;;;;;;;27.88;13.40;;;;;;;0.52;100.00;96954.00;5025220;28;20088;-54
2022/12/04 09:16:38;;;;;;;26.52;13.05;;;;;;;0.45;100.00;96955.78;5045059;28;20118;-54
2022/12/04 09:19:04;;;;;;;30.00;13.90;;;;;;;0.45;100.00;96950.47;5029655;28;20673;-55
2022/12/04 09:21:31;;;;;;;36.60;14.82;;;;;;;0.37;100.00;96951.47;5024627;28;20104;-56
2022/12/04 09:23:58;;;;;;;28.35;14.27;;;;;;;0.35;100.00;96946.31;5024735;28;20089;-55
2022/12/04 09:26:32;;;;;;;32.53;15.38;;;;;;;0.53;100.00;96950.28;5041180;28;20059;-58
2022/12/04 09:29:00;;;;;;;31.88;15.52;;;;;;;0.47;100.00;96959.91;5034242;28;20037;-59
2022/12/04 09:31:27;;;;;;;34.05;16.25;;;;;;;0.53;100.00;96952.97;5024476;28;20127;-54
2022/12/04 09:33:53;;;;;;;31.98;15.20;;;;;;;0.52;100.00;96941.47;5024851;28;20045;-57
2022/12/04 09:36:20;;;;;;;30.67;15.18;;;;;;;0.58;100.00;96945.19;5024283;28;20050;-58
2022/12/04 09:38:49;;;;;;;33.90;15.18;;;;;;;0.52;100.00;96932.69;5025368;28;20088;-56
2022/12/04 09:41:53;;;;;;;30.40;14.40;;;;;;;0.61;100.00;96930.66;5024203;28;20048;-58
2022/12/04 09:44:26;;;;;;;33.03;15.73;;;;;;;0.58;100.00;96929.19;5032970;28;20095;-59
2022/12/04 09:47:00;;;;;;;33.58;15.63;;;;;;;0.46;100.00;96920.97;5024588;28;20586;-55
2022/12/04 09:49:27;;;;;;;38.15;16.92;;;;;;;0.40;100.00;96915.59;5025651;28;20050;-53
2022/12/04 09:51:58;;;;;;;36.80;16.02;;;;;;;0.38;100.00;96915.81;5024192;28;20096;-53
2022/12/04 09:54:38;;;;;;;39.17;16.50;;;;;;;0.48;100.00;96904.78;5024814;28;20037;-58
2022/12/04 09:57:20;;;;;;;34.30;14.98;;;;;;;0.52;100.00;96895.38;5024970;28;20378;-57
2022/12/04 09:59:49;;;;;;;35.22;16.88;;;;;;;0.51;100.00;96893.72;5022577;28;20055;-55
2022/12/04 10:02:34;;;;;;;34.00;15.15;;;;;;;0.48;100.00;96894.13;5024272;28;20124;-56
2022/12/04 10:05:01;;;;;;;39.53;16.83;;;;;;;0.52;100.00;96879.41;5021448;28;20041;-57
2022/12/04 10:07:31;;;;;;;38.47;16.17;;;;;;;0.66;100.00;96876.78;5024170;28;20335;-58
2022/12/04 10:09:58;;;;;;;32.28;14.23;;;;;;;0.83;100.00;96879.88;5009998;28;20037;-54
2022/12/04 10:12:56;;;;;;;29.42;13.95;;;;;;;0.88;100.00;96866.75;5017370;28;20053;-58
2022/12/04 10:15:31;;;;;;;30.05;13.93;;;;;;;0.73;100.00;96872.25;5026218;28;20044;-55
2022/12/04 10:18:16;;;;;;;34.10;13.70;;;;;;;0.77;100.00;96866.34;5021422;28;20045;-56
2022/12/04 10:21:06;;;;;;;34.22;14.88;;;;;;;0.80;100.00;96864.31;5013521;28;20095;-56
2022/12/04 10:23:42;;;;;;;34.55;15.07;;;;;;;0.75;100.00;96856.91;5009192;28;20100;-57
2022/12/04 10:26:17;;;;;;;34.47;15.00;;;;;;;0.72;100.00;96868.78;5006304;28;20489;-55
2022/12/04 10:28:49;;;;;;;31.90;15.02;;;;;;;0.70;100.00;96870.81;5017887;28;20041;-53
2022/12/04 10:31:23;;;;;;;28.92;14.18;;;;;;;0.70;100.00;96864.69;5023317;28;20049;-56
2022/12/04 10:33:54;;;;;;;32.55;14.00;;;;;;;0.66;100.00;96858.91;5034355;28;20045;-57
2022/12/04 10:36:28;;;;;;;39.88;17.17;;;;;;;0.72;100.00;96865.28;5018500;28;20045;-58
2022/12/04 10:38:58;;;;;;;37.67;17.55;;;;;;;0.66;100.00;96858.91;5016529;28;20116;-59
2022/12/04 10:41:39;;;;;;;35.00;15.02;;;;;;;0.63;100.00;96854.81;5016459;28;20041;-59
2022/12/04 10:44:18;;;;;;;32.53;13.48;;;;;;;0.74;100.00;96852.59;5019494;28;20517;-59
2022/12/04 10:46:45;;;;;;;33.13;17.50;;;;;;;0.63;100.00;96856.69;5020958;28;20486;-59
2022/12/04 10:49:20;;;;;;;32.13;15.30;;;;;;;0.61;100.00;96862.19;5018738;28;20054;-56
2022/12/04 10:51:47;;;;;;;35.67;16.13;;;;;;;0.73;100.00;96869.59;5017357;28;20096;-59
2022/12/04 10:54:36;;;;;;;28.75;15.25;;;;;;;0.62;100.00;96868.34;5015021;28;20041;-57
2022/12/04 10:57:05;;;;;;;28.45;14.98;;;;;;;0.70;100.00;96875.34;5020736;28;20049;-57
2022/12/04 10:59:32;;;;;;;25.88;13.32;;;;;;;0.76;100.00;96878.03;5016509;28;20029;-56
2022/12/04 11:02:03;;;;;;;34.38;12.93;;;;;;;0.77;100.00;96886.81;5015643;28;20068;-56
2022/12/04 11:04:33;;;;;;;30.27;14.65;;;;;;;0.79;100.00;96876.81;5023019;28;20069;-57
2022/12/04 11:07:13;;;;;;;29.85;13.40;;;;;;;0.69;100.00;96885.16;5025548;28;20121;-59
2022/12/04 11:09:40;;;;;;;31.67;13.77;;;;;;;0.62;100.00;96881.66;5011285;28;20054;-54
2022/12/04 11:12:16;;;;;;;31.13;14.80;;;;;;;0.71;100.00;96882.31;5019373;28;20045;-58
2022/12/04 11:14:43;;;;;;;27.45;14.02;;;;;;;0.72;100.00;96881.28;5016041;28;20044;-56
2022/12/04 11:17:18;;;;;;;33.75;15.07;;;;;;;0.72;100.00;96876.78;5018542;28;20124;-56
2022/12/04 11:19:45;;;;;;;29.20;15.82;;;;;;;0.63;100.00;96870.00;5019091;28;20326;-59
2022/12/04 11:22:15;;;;;;;30.75;15.93;;;;;;;0.74;100.00;96871.25;5014958;28;20117;-57
2022/12/04 11:24:48;;;;;;;30.85;15.38;;;;;;;0.74;100.00;96871.25;5016813;28;20077;-56
2022/12/04 11:27:28;;;;;;;30.02;13.93;;;;;;;0.70;100.00;96870.81;5024971;28;20042;-58
2022/12/04 11:29:55;;;;;;;28.88;13.10;;;;;;;0.62;100.00;96879.00;5013466;28;20116;-55
2022/12/04 11:32:26;;;;;;;29.50;14.95;;;;;;;0.65;100.00;96878.59;5014424;28;20037;-56
2022/12/04 11:34:56;;;;;;;26.33;13.07;;;;;;;0.63;100.00;96886.00;5021835;28;20056;-56
2022/12/04 11:37:33;;;;;;;31.67;13.23;;;;;;;0.56;100.00;96863.81;5023401;28;20045;-57
2022/12/04 11:40:05;;;;;;;29.17;13.57;;;;;;;0.64;100.00;96859.16;5018565;28;20092;-55
2022/12/04 11:42:32;;;;;;;28.08;14.15;;;;;;;0.58;100.00;96865.25;5019700;28;20501;-56
2022/12/04 11:45:17;;;;;;;30.38;13.95;;;;;;;0.54;100.00;96857.84;5017864;28;21299;-57
2022/12/04 11:47:53;;;;;;;26.80;12.05;;;;;;;0.61;100.00;96851.53;5029866;28;20045;-57